sensor_id;sensor_type;location;lat;lon;timestamp;pressure;altitude;pressure_sealevel;temperature;humidity
38197;BME280;26543;51.976;4.616;2023-05-03T00:00:32;52780.47;;;-140.72;100.00
38197;BME280;26543;51.976;4.616;2023-05-03T00:02:57;52808.88;;;-140.72;100.00
38197;BME280;26543;51.976;4.616;2023-05-03T00:05:24;52776.41;;;-140.72;100.00
38197;BME280;26543;51.976;4.616;2023-05-03T00:07:50;52766.25;;;-140.72;100.00
38197;BME280;26543;51.976;4.616;2023-05-03T00:10:16;52792.66;;;-140.72;100.00
38197;BME280;26543;51.976;4.616;2023-05-03T00:12:42;52800.75;;;-140.72;100.00
38197;BME280;26543;51.976;4.616;2023-05-03T00:15:08;52800.75;;;-140.72;100.00
38197;BME280;26543;51.976;4.616;2023-05-03T00:17:33;52798.72;;;-140.72;100.00
38197;BME280;26543;51.976;4.616;2023-05-03T00:19:58;52796.72;;;-140.72;100.00
38197;BME280;26543;51.976;4.616;2023-05-03T00:22:24;52817.00;;;-140.72;100.00
38197;BME280;26543;51.976;4.616;2023-05-03T00:24:49;52792.66;;;-140.72;100.00
38197;BME280;26543;51.976;4.616;2023-05-03T00:27:15;52812.94;;;-140.72;100.00
38197;BME280;26543;51.976;4.616;2023-05-03T00:29:41;52792.66;;;-140.72;100.00
38197;BME280;26543;51.976;4.616;2023-05-03T00:32:06;52792.66;;;-140.72;100.00
38197;BME280;26543;51.976;4.616;2023-05-03T00:34:32;52827.16;;;-140.72;100.00
38197;BME280;26543;51.976;4.616;2023-05-03T00:36:57;52792.66;;;-140.72;100.00
38197;BME280;26543;51.976;4.616;2023-05-03T00:39:23;52825.13;;;-140.72;100.00
38197;BME280;26543;51.976;4.616;2023-05-03T00:41:48;52754.09;;;-140.72;100.00
38197;BME280;26543;51.976;4.616;2023-05-03T00:44:13;52804.81;;;-140.72;100.00
38197;BME280;26543;51.976;4.616;2023-05-03T00:46:38;52792.66;;;-140.72;100.00
38197;BME280;26543;51.976;4.616;2023-05-03T00:49:04;52821.06;;;-140.72;100.00
38197;BME280;26543;51.976;4.616;2023-05-03T00:51:30;52819.03;;;-140.72;100.00
38197;BME280;26543;51.976;4.616;2023-05-03T00:53:55;52810.91;;;-140.72;100.00
38197;BME280;26543;51.976;4.616;2023-05-03T00:56:21;52806.84;;;-140.72;100.00
38197;BME280;26543;51.976;4.616;2023-05-03T00:59:03;52806.84;;;-140.72;100.00
38197;BME280;26543;51.976;4.616;2023-05-03T01:01:30;52829.19;;;-140.72;100.00
38197;BME280;26543;51.976;4.616;2023-05-03T01:03:56;52823.09;;;-140.72;100.00
38197;BME280;26543;51.976;4.616;2023-05-03T01:09:09;52804.81;;;-140.72;100.00
38197;BME280;26543;51.976;4.616;2023-05-03T01:11:40;52808.88;;;-140.72;100.00
38197;BME280;26543;51.976;4.616;2023-05-03T01:16:55;52806.84;;;-140.72;100.00
38197;BME280;26543;51.976;4.616;2023-05-03T01:19:30;52780.47;;;-140.72;100.00
38197;BME280;26543;51.976;4.616;2023-05-03T01:24:32;52806.84;;;-140.72;100.00
38197;BME280;26543;51.976;4.616;2023-05-03T01:26:59;52841.34;;;-140.72;100.00
38197;BME280;26543;51.976;4.616;2023-05-03T01:29:31;52802.78;;;-140.72;100.00
38197;BME280;26543;51.976;4.616;2023-05-03T01:31:58;52841.34;;;-140.72;100.00
38197;BME280;26543;51.976;4.616;2023-05-03T01:37:10;52821.06;;;-140.72;100.00
38197;BME280;26543;51.976;4.616;2023-05-03T01:39:38;52837.28;;;-140.72;100.00
38197;BME280;26543;51.976;4.616;2023-05-03T01:42:16;52812.94;;;-140.72;100.00
38197;BME280;26543;51.976;4.616;2023-05-03T01:44:42;52825.13;;;-140.72;100.00
38197;BME280;26543;51.976;4.616;2023-05-03T01:47:14;52837.28;;;-140.72;100.00
38197;BME280;26543;51.976;4.616;2023-05-03T01:49:39;52784.53;;;-140.72;100.00
38197;BME280;26543;51.976;4.616;2023-05-03T01:52:04;52810.91;;;-140.72;100.00
38197;BME280;26543;51.976;4.616;2023-05-03T01:54:30;52837.28;;;-140.72;100.00
38197;BME280;26543;51.976;4.616;2023-05-03T01:56:55;52843.38;;;-140.72;100.00
38197;BME280;26543;51.976;4.616;2023-05-03T01:59:20;52857.59;;;-140.72;100.00
38197;BME280;26543;51.976;4.616;2023-05-03T02:01:46;52847.44;;;-140.72;100.00
38197;BME280;26543;51.976;4.616;2023-05-03T02:04:11;52812.94;;;-140.72;100.00
38197;BME280;26543;51.976;4.616;2023-05-03T02:06:36;52833.22;;;-140.72;100.00
38197;BME280;26543;51.976;4.616;2023-05-03T02:09:01;52804.81;;;-140.72;100.00
38197;BME280;26543;51.976;4.616;2023-05-03T02:11:27;52823.09;;;-140.72;100.00
38197;BME280;26543;51.976;4.616;2023-05-03T02:14:02;52831.19;;;-140.72;100.00
38197;BME280;26543;51.976;4.616;2023-05-03T02:16:28;52855.56;;;-140.72;100.00
38197;BME280;26543;51.976;4.616;2023-05-03T02:18:53;52817.00;;;-140.72;100.00
38197;BME280;26543;51.976;4.616;2023-05-03T02:21:32;52819.03;;;-140.72;100.00
38197;BME280;26543;51.976;4.616;2023-05-03T02:23:57;52819.03;;;-140.72;100.00
38197;BME280;26543;51.976;4.616;2023-05-03T02:26:23;52879.91;;;-140.72;100.00
38197;BME280;26543;51.976;4.616;2023-05-03T02:28:49;52823.09;;;-140.72;100.00
38197;BME280;26543;51.976;4.616;2023-05-03T02:31:14;52839.31;;;-140.72;100.00
38197;BME280;26543;51.976;4.616;2023-05-03T02:33:41;52873.81;;;-140.72;100.00
38197;BME280;26543;51.976;4.616;2023-05-03T02:36:06;52817.00;;;-140.72;100.00
38197;BME280;26543;51.976;4.616;2023-05-03T02:41:00;52841.34;;;-140.72;100.00
38197;BME280;26543;51.976;4.616;2023-05-03T02:43:26;52865.69;;;-140.72;100.00
38197;BME280;26543;51.976;4.616;2023-05-03T02:45:51;52812.94;;;-140.72;100.00
38197;BME280;26543;51.976;4.616;2023-05-03T02:48:16;52831.19;;;-140.72;100.00
38197;BME280;26543;51.976;4.616;2023-05-03T02:50:42;52845.41;;;-140.72;100.00
38197;BME280;26543;51.976;4.616;2023-05-03T02:53:07;52867.72;;;-140.72;100.00
38197;BME280;26543;51.976;4.616;2023-05-03T02:55:38;52863.66;;;-140.72;100.00
38197;BME280;26543;51.976;4.616;2023-05-03T02:58:03;52849.47;;;-140.72;100.00
38197;BME280;26543;51.976;4.616;2023-05-03T03:00:29;52839.31;;;-140.72;100.00
38197;BME280;26543;51.976;4.616;2023-05-03T03:05:30;52802.78;;;-140.72;100.00
38197;BME280;26543;51.976;4.616;2023-05-03T03:07:55;52837.28;;;-140.72;100.00
38197;BME280;26543;51.976;4.616;2023-05-03T03:10:20;52831.19;;;-140.72;100.00
38197;BME280;26543;51.976;4.616;2023-05-03T03:12:45;52821.06;;;-140.72;100.00
38197;BME280;26543;51.976;4.616;2023-05-03T03:15:11;52829.19;;;-140.72;100.00
38197;BME280;26543;51.976;4.616;2023-05-03T03:17:37;52827.16;;;-140.72;100.00
38197;BME280;26543;51.976;4.616;2023-05-03T03:20:04;52890.06;;;-140.72;100.00
38197;BME280;26543;51.976;4.616;2023-05-03T03:22:30;52855.56;;;-140.72;100.00
38197;BME280;26543;51.976;4.616;2023-05-03T03:24:55;52817.00;;;-140.72;100.00
38197;BME280;26543;51.976;4.616;2023-05-03T03:27:20;52812.94;;;-140.72;100.00
38197;BME280;26543;51.976;4.616;2023-05-03T03:29:47;52861.66;;;-140.72;100.00
38197;BME280;26543;51.976;4.616;2023-05-03T03:32:12;52817.00;;;-140.72;100.00
38197;BME280;26543;51.976;4.616;2023-05-03T03:34:37;52853.53;;;-140.72;100.00
38197;BME280;26543;51.976;4.616;2023-05-03T03:37:02;52851.50;;;-140.72;100.00
38197;BME280;26543;51.976;4.616;2023-05-03T03:39:28;52845.41;;;-140.72;100.00
38197;BME280;26543;51.976;4.616;2023-05-03T03:41:53;52841.34;;;-140.72;100.00
38197;BME280;26543;51.976;4.616;2023-05-03T03:44:18;52879.91;;;-140.72;100.00
38197;BME280;26543;51.976;4.616;2023-05-03T03:46:44;52873.81;;;-140.72;100.00
38197;BME280;26543;51.976;4.616;2023-05-03T03:49:09;52849.47;;;-140.72;100.00
38197;BME280;26543;51.976;4.616;2023-05-03T03:51:34;52827.16;;;-140.72;100.00
38197;BME280;26543;51.976;4.616;2023-05-03T03:54:00;52883.97;;;-140.72;100.00
38197;BME280;26543;51.976;4.616;2023-05-03T03:56:25;52865.69;;;-140.72;100.00
38197;BME280;26543;51.976;4.616;2023-05-03T03:58:50;52829.19;;;-140.72;100.00
38197;BME280;26543;51.976;4.616;2023-05-03T04:01:16;52847.44;;;-140.72;100.00
38197;BME280;26543;51.976;4.616;2023-05-03T04:03:43;52877.88;;;-140.72;100.00
38197;BME280;26543;51.976;4.616;2023-05-03T04:06:10;52845.41;;;-140.72;100.00
38197;BME280;26543;51.976;4.616;2023-05-03T04:08:35;52886.00;;;-140.72;100.00
38197;BME280;26543;51.976;4.616;2023-05-03T04:11:01;52869.75;;;-140.72;100.00
38197;BME280;26543;51.976;4.616;2023-05-03T04:13:27;52855.56;;;-140.72;100.00
38197;BME280;26543;51.976;4.616;2023-05-03T04:15:56;52851.50;;;-140.72;100.00
38197;BME280;26543;51.976;4.616;2023-05-03T04:18:21;52877.88;;;-140.72;100.00
38197;BME280;26543;51.976;4.616;2023-05-03T04:20:47;52863.66;;;-140.72;100.00
38197;BME280;26543;51.976;4.616;2023-05-03T04:23:12;52839.31;;;-140.72;100.00
38197;BME280;26543;51.976;4.616;2023-05-03T04:25:37;52904.25;;;-140.72;100.00
38197;BME280;26543;51.976;4.616;2023-05-03T04:28:03;52845.41;;;-140.72;100.00
38197;BME280;26543;51.976;4.616;2023-05-03T04:30:28;52849.47;;;-140.72;100.00
38197;BME280;26543;51.976;4.616;2023-05-03T04:32:53;52881.94;;;-140.72;100.00
38197;BME280;26543;51.976;4.616;2023-05-03T04:35:19;52845.41;;;-140.72;100.00
38197;BME280;26543;51.976;4.616;2023-05-03T04:37:44;52837.28;;;-140.72;100.00
38197;BME280;26543;51.976;4.616;2023-05-03T04:40:10;52857.59;;;-140.72;100.00
38197;BME280;26543;51.976;4.616;2023-05-03T04:42:36;52865.69;;;-140.72;100.00
38197;BME280;26543;51.976;4.616;2023-05-03T04:45:01;52857.59;;;-140.72;100.00
38197;BME280;26543;51.976;4.616;2023-05-03T04:47:28;52861.66;;;-140.72;100.00
38197;BME280;26543;51.976;4.616;2023-05-03T04:49:53;52837.28;;;-140.72;100.00
38197;BME280;26543;51.976;4.616;2023-05-03T04:52:18;52890.06;;;-140.72;100.00
38197;BME280;26543;51.976;4.616;2023-05-03T04:54:43;52843.38;;;-140.72;100.00
38197;BME280;26543;51.976;4.616;2023-05-03T04:57:09;52855.56;;;-140.72;100.00
38197;BME280;26543;51.976;4.616;2023-05-03T04:59:34;52855.56;;;-140.72;100.00
38197;BME280;26543;51.976;4.616;2023-05-03T05:04:30;52869.75;;;-140.72;100.00
38197;BME280;26543;51.976;4.616;2023-05-03T05:07:02;52855.56;;;-140.72;100.00
38197;BME280;26543;51.976;4.616;2023-05-03T05:09:28;52863.66;;;-140.72;100.00
38197;BME280;26543;51.976;4.616;2023-05-03T05:11:55;52849.47;;;-140.72;100.00
38197;BME280;26543;51.976;4.616;2023-05-03T05:14:20;52833.22;;;-140.72;100.00
38197;BME280;26543;51.976;4.616;2023-05-03T05:16:45;52890.06;;;-140.72;100.00
38197;BME280;26543;51.976;4.616;2023-05-03T05:19:11;52839.31;;;-140.72;100.00
38197;BME280;26543;51.976;4.616;2023-05-03T05:21:37;52825.13;;;-140.72;100.00
38197;BME280;26543;51.976;4.616;2023-05-03T05:24:02;52849.47;;;-140.72;100.00
38197;BME280;26543;51.976;4.616;2023-05-03T05:26:28;52814.97;;;-140.72;100.00
38197;BME280;26543;51.976;4.616;2023-05-03T05:28:53;52819.03;;;-140.72;100.00
38197;BME280;26543;51.976;4.616;2023-05-03T05:31:19;52845.41;;;-140.72;100.00
38197;BME280;26543;51.976;4.616;2023-05-03T05:33:44;52812.94;;;-140.72;100.00
38197;BME280;26543;51.976;4.616;2023-05-03T05:36:09;52827.16;;;-140.72;100.00
38197;BME280;26543;51.976;4.616;2023-05-03T05:38:35;52825.13;;;-140.72;100.00
38197;BME280;26543;51.976;4.616;2023-05-03T05:41:00;52796.72;;;-140.72;100.00
38197;BME280;26543;51.976;4.616;2023-05-03T05:43:25;52857.59;;;-140.72;100.00
38197;BME280;26543;51.976;4.616;2023-05-03T05:45:51;52845.41;;;-140.72;100.00
38197;BME280;26543;51.976;4.616;2023-05-03T05:48:16;52825.13;;;-140.72;100.00
38197;BME280;26543;51.976;4.616;2023-05-03T05:50:41;52821.06;;;-140.72;100.00
38197;BME280;26543;51.976;4.616;2023-05-03T05:53:06;52796.72;;;-140.72;100.00
38197;BME280;26543;51.976;4.616;2023-05-03T05:55:33;52821.06;;;-140.72;100.00
38197;BME280;26543;51.976;4.616;2023-05-03T05:57:58;52808.88;;;-140.72;100.00
38197;BME280;26543;51.976;4.616;2023-05-03T06:00:23;52823.09;;;-140.72;100.00
38197;BME280;26543;51.976;4.616;2023-05-03T06:02:49;52796.72;;;-140.72;100.00
38197;BME280;26543;51.976;4.616;2023-05-03T06:05:14;52835.25;;;-140.72;100.00
38197;BME280;26543;51.976;4.616;2023-05-03T06:07:40;52782.50;;;-140.72;100.00
38197;BME280;26543;51.976;4.616;2023-05-03T06:10:05;52792.66;;;-140.72;100.00
38197;BME280;26543;51.976;4.616;2023-05-03T06:12:30;52772.34;;;-140.72;100.00
38197;BME280;26543;51.976;4.616;2023-05-03T06:14:56;52833.22;;;-140.72;100.00
38197;BME280;26543;51.976;4.616;2023-05-03T06:17:21;52796.72;;;-140.72;100.00
38197;BME280;26543;51.976;4.616;2023-05-03T06:19:50;52804.81;;;-140.72;100.00
38197;BME280;26543;51.976;4.616;2023-05-03T06:22:16;52800.75;;;-140.72;100.00
38197;BME280;26543;51.976;4.616;2023-05-03T06:24:41;52792.66;;;-140.72;100.00
38197;BME280;26543;51.976;4.616;2023-05-03T06:27:06;52804.81;;;-140.72;100.00
38197;BME280;26543;51.976;4.616;2023-05-03T06:29:31;52821.06;;;-140.72;100.00
38197;BME280;26543;51.976;4.616;2023-05-03T06:31:57;52786.56;;;-140.72;100.00
38197;BME280;26543;51.976;4.616;2023-05-03T06:34:22;52804.81;;;-140.72;100.00
38197;BME280;26543;51.976;4.616;2023-05-03T06:36:48;52772.34;;;-140.72;100.00
38197;BME280;26543;51.976;4.616;2023-05-03T06:39:13;52780.47;;;-140.72;100.00
38197;BME280;26543;51.976;4.616;2023-05-03T06:41:39;52800.75;;;-140.72;100.00
38197;BME280;26543;51.976;4.616;2023-05-03T06:44:04;52788.59;;;-140.72;100.00
38197;BME280;26543;51.976;4.616;2023-05-03T06:46:37;52804.81;;;-140.72;100.00
38197;BME280;26543;51.976;4.616;2023-05-03T06:49:03;52741.91;;;-140.72;100.00
38197;BME280;26543;51.976;4.616;2023-05-03T06:51:28;52780.47;;;-140.72;100.00
38197;BME280;26543;51.976;4.616;2023-05-03T06:54:09;52794.69;;;-140.72;100.00
38197;BME280;26543;51.976;4.616;2023-05-03T06:56:34;52786.56;;;-140.72;100.00
38197;BME280;26543;51.976;4.616;2023-05-03T06:59:00;52784.53;;;-140.72;100.00
38197;BME280;26543;51.976;4.616;2023-05-03T07:01:26;52776.41;;;-140.72;100.00
38197;BME280;26543;51.976;4.616;2023-05-03T07:03:51;52796.72;;;-140.72;100.00
38197;BME280;26543;51.976;4.616;2023-05-03T07:06:16;52743.94;;;-140.72;100.00
38197;BME280;26543;51.976;4.616;2023-05-03T07:08:42;52780.47;;;-140.72;100.00
38197;BME280;26543;51.976;4.616;2023-05-03T07:11:07;52766.25;;;-140.72;100.00
38197;BME280;26543;51.976;4.616;2023-05-03T07:13:33;52745.97;;;-140.72;100.00
38197;BME280;26543;51.976;4.616;2023-05-03T07:15:59;52743.94;;;-140.72;100.00
38197;BME280;26543;51.976;4.616;2023-05-03T07:18:24;52735.81;;;-140.72;100.00
38197;BME280;26543;51.976;4.616;2023-05-03T07:20:49;52717.56;;;-140.72;90.43
38197;BME280;26543;51.976;4.616;2023-05-03T07:23:17;52748.00;;;-140.72;78.03
38197;BME280;26543;51.976;4.616;2023-05-03T07:25:42;52739.88;;;-140.72;59.04
38197;BME280;26543;51.976;4.616;2023-05-03T07:28:07;52760.19;;;-140.72;25.31
38197;BME280;26543;51.976;4.616;2023-05-03T07:33:42;52752.06;;;-140.72;0.00
38197;BME280;26543;51.976;4.616;2023-05-03T07:36:08;52748.00;;;-140.72;0.00
38197;BME280;26543;51.976;4.616;2023-05-03T07:38:33;52707.41;;;-140.72;0.00
38197;BME280;26543;51.976;4.616;2023-05-03T07:40:58;52717.56;;;-140.72;0.00
38197;BME280;26543;51.976;4.616;2023-05-03T07:43:23;52711.47;;;-140.72;0.00
38197;BME280;26543;51.976;4.616;2023-05-03T07:45:48;52739.88;;;-140.72;0.00
38197;BME280;26543;51.976;4.616;2023-05-03T07:48:14;52687.13;;;-140.72;0.00
38197;BME280;26543;51.976;4.616;2023-05-03T07:50:43;52721.63;;;-140.72;0.00
38197;BME280;26543;51.976;4.616;2023-05-03T07:53:09;52713.50;;;-140.72;0.00
38197;BME280;26543;51.976;4.616;2023-05-03T07:55:34;52715.53;;;-140.72;0.00
38197;BME280;26543;51.976;4.616;2023-05-03T07:58:00;52719.59;;;-140.72;0.00
38197;BME280;26543;51.976;4.616;2023-05-03T08:00:26;52723.66;;;-140.72;0.00
38197;BME280;26543;51.976;4.616;2023-05-03T08:02:51;52705.38;;;-140.72;0.00
38197;BME280;26543;51.976;4.616;2023-05-03T08:05:16;52683.06;;;-140.72;0.00
38197;BME280;26543;51.976;4.616;2023-05-03T08:07:42;52717.56;;;-140.72;0.00
38197;BME280;26543;51.976;4.616;2023-05-03T08:10:08;52666.84;;;-140.72;0.00
38197;BME280;26543;51.976;4.616;2023-05-03T08:12:34;52685.09;;;-140.72;0.00
38197;BME280;26543;51.976;4.616;2023-05-03T08:15:00;52640.44;;;-140.72;0.00
38197;BME280;26543;51.976;4.616;2023-05-03T08:17:25;52607.97;;;-140.72;0.00
38197;BME280;26543;51.976;4.616;2023-05-03T08:19:50;52672.91;;;-140.72;0.00
38197;BME280;26543;51.976;4.616;2023-05-03T08:22:16;52640.44;;;-140.72;0.00
38197;BME280;26543;51.976;4.616;2023-05-03T08:24:42;52628.28;;;-140.72;0.00
38197;BME280;26543;51.976;4.616;2023-05-03T08:27:07;52634.38;;;-140.72;0.00
38197;BME280;26543;51.976;4.616;2023-05-03T08:29:34;52616.09;;;-140.72;0.00
38197;BME280;26543;51.976;4.616;2023-05-03T08:32:01;52618.13;;;-140.72;0.00
38197;BME280;26543;51.976;4.616;2023-05-03T08:34:26;52632.34;;;-140.72;0.00
38197;BME280;26543;51.976;4.616;2023-05-03T08:36:52;52589.72;;;-140.72;0.00
38197;BME280;26543;51.976;4.616;2023-05-03T08:39:17;52599.88;;;-140.72;0.00
38197;BME280;26543;51.976;4.616;2023-05-03T08:41:43;52605.94;;;-140.72;0.00
38197;BME280;26543;51.976;4.616;2023-05-03T08:46:39;52575.50;;;-140.72;0.00
38197;BME280;26543;51.976;4.616;2023-05-03T08:49:06;52524.78;;;-140.72;0.00
38197;BME280;26543;51.976;4.616;2023-05-03T08:51:33;52496.38;;;-140.72;0.00
38197;BME280;26543;51.976;4.616;2023-05-03T08:53:58;52492.31;;;-140.72;0.00
38197;BME280;26543;51.976;4.616;2023-05-03T08:56:33;52480.16;;;-140.72;0.00
38197;BME280;26543;51.976;4.616;2023-05-03T08:59:03;52526.81;;;-140.72;0.00
38197;BME280;26543;51.976;4.616;2023-05-03T09:01:32;52500.44;;;-140.72;0.00
38197;BME280;26543;51.976;4.616;2023-05-03T09:04:12;52463.91;;;-140.72;0.00
38197;BME280;26543;51.976;4.616;2023-05-03T09:06:38;52443.63;;;-140.72;0.00
38197;BME280;26543;51.976;4.616;2023-05-03T09:09:04;52435.50;;;-140.72;0.00
38197;BME280;26543;51.976;4.616;2023-05-03T09:11:31;52388.84;;;-140.72;0.00
38197;BME280;26543;51.976;4.616;2023-05-03T09:14:07;52382.75;;;-140.72;0.00
38197;BME280;26543;51.976;4.616;2023-05-03T09:16:32;52376.66;;;-140.72;0.00
38197;BME280;26543;51.976;4.616;2023-05-03T09:19:01;52366.50;;;-140.72;0.00
38197;BME280;26543;51.976;4.616;2023-05-03T09:21:27;52455.78;;;-140.72;0.00
38197;BME280;26543;51.976;4.616;2023-05-03T09:23:52;52476.09;;;-140.72;0.00
38197;BME280;26543;51.976;4.616;2023-05-03T09:26:30;52396.94;;;-140.72;0.00
38197;BME280;26543;51.976;4.616;2023-05-03T09:28:59;52378.69;;;-140.72;0.00
38197;BME280;26543;51.976;4.616;2023-05-03T09:31:26;52358.41;;;-140.72;0.00
38197;BME280;26543;51.976;4.616;2023-05-03T09:33:51;52336.06;;;-140.72;0.00
38197;BME280;26543;51.976;4.616;2023-05-03T09:36:17;52336.06;;;-140.72;0.00
38197;BME280;26543;51.976;4.616;2023-05-03T09:38:42;52269.13;;;-140.72;0.00
38197;BME280;26543;51.976;4.616;2023-05-03T09:41:08;52305.63;;;-140.72;0.00
38197;BME280;26543;51.976;4.616;2023-05-03T09:43:34;52301.59;;;-140.72;0.00
38197;BME280;26543;51.976;4.616;2023-05-03T09:49:02;52236.66;;;-140.72;0.00
38197;BME280;26543;51.976;4.616;2023-05-03T09:51:28;52346.22;;;-140.72;0.00
38197;BME280;26543;51.976;4.616;2023-05-03T09:53:54;52405.06;;;-140.72;0.00
38197;BME280;26543;51.976;4.616;2023-05-03T09:56:20;52299.56;;;-140.72;0.00
38197;BME280;26543;51.976;4.616;2023-05-03T09:58:50;52263.03;;;-140.72;0.00
38197;BME280;26543;51.976;4.616;2023-05-03T10:01:15;52230.56;;;-140.72;0.00
38197;BME280;26543;51.976;4.616;2023-05-03T10:03:42;52261.00;;;-140.72;0.00
38197;BME280;26543;51.976;4.616;2023-05-03T10:08:39;52340.13;;;-140.72;0.00
38197;BME280;26543;51.976;4.616;2023-05-03T10:11:06;52157.53;;;-140.72;0.00
38197;BME280;26543;51.976;4.616;2023-05-03T10:13:32;52200.13;;;-140.72;0.00
38197;BME280;26543;51.976;4.616;2023-05-03T10:15:59;52236.66;;;-140.72;0.00
38197;BME280;26543;51.976;4.616;2023-05-03T10:18:27;52248.81;;;-140.72;0.00
38197;BME280;26543;51.976;4.616;2023-05-03T10:20:54;52212.31;;;-140.72;0.00
38197;BME280;26543;51.976;4.616;2023-05-03T10:23:22;52222.44;;;-140.72;0.00
38197;BME280;26543;51.976;4.616;2023-05-03T10:28:42;52167.66;;;-140.72;0.00
38197;BME280;26543;51.976;4.616;2023-05-03T10:31:53;52153.47;;;-140.72;0.00
38197;BME280;26543;51.976;4.616;2023-05-03T10:33:53;52145.34;;;-140.72;0.00
38197;BME280;26543;51.976;4.616;2023-05-03T10:36:18;52139.25;;;-140.72;0.00
38197;BME280;26543;51.976;4.616;2023-05-03T10:38:54;52066.22;;;-140.72;0.00
38197;BME280;26543;51.976;4.616;2023-05-03T10:41:23;52163.59;;;-140.72;0.00
38197;BME280;26543;51.976;4.616;2023-05-03T10:43:50;52123.03;;;-140.72;0.00
38197;BME280;26543;51.976;4.616;2023-05-03T10:46:29;52110.84;;;-140.72;0.00
38197;BME280;26543;51.976;4.616;2023-05-03T10:49:13;52094.63;;;-140.72;0.00
38197;BME280;26543;51.976;4.616;2023-05-03T10:51:39;52171.72;;;-140.72;0.00
38197;BME280;26543;51.976;4.616;2023-05-03T10:54:07;52098.69;;;-140.72;0.00
38197;BME280;26543;51.976;4.616;2023-05-03T10:56:33;52114.91;;;-140.72;0.00
38197;BME280;26543;51.976;4.616;2023-05-03T10:59:10;52064.19;;;-140.72;0.00
38197;BME280;26543;51.976;4.616;2023-05-03T11:01:36;52084.47;;;-140.72;0.00
38197;BME280;26543;51.976;4.616;2023-05-03T11:06:45;52080.41;;;-140.72;0.00
38197;BME280;26543;51.976;4.616;2023-05-03T11:09:13;52023.59;;;-140.72;0.00
38197;BME280;26543;51.976;4.616;2023-05-03T11:11:39;52045.94;;;-140.72;0.00
38197;BME280;26543;51.976;4.616;2023-05-03T11:14:04;52025.63;;;-140.72;0.00
38197;BME280;26543;51.976;4.616;2023-05-03T11:16:30;51985.06;;;-140.72;0.00
38197;BME280;26543;51.976;4.616;2023-05-03T11:18:55;51987.09;;;-140.72;0.00
38197;BME280;26543;51.976;4.616;2023-05-03T11:21:21;51991.16;;;-140.72;0.00
38197;BME280;26543;51.976;4.616;2023-05-03T11:23:47;51995.19;;;-140.72;0.00
38197;BME280;26543;51.976;4.616;2023-05-03T11:26:12;51972.88;;;-140.72;0.00
38197;BME280;26543;51.976;4.616;2023-05-03T11:28:41;51981.00;;;-140.72;0.00
38197;BME280;26543;51.976;4.616;2023-05-03T11:31:10;51985.06;;;-140.72;0.00
38197;BME280;26543;51.976;4.616;2023-05-03T11:33:36;52021.56;;;-140.72;0.00
38197;BME280;26543;51.976;4.616;2023-05-03T11:36:02;52023.59;;;-140.72;0.00
38197;BME280;26543;51.976;4.616;2023-05-03T11:38:29;51997.22;;;-140.72;0.00
38197;BME280;26543;51.976;4.616;2023-05-03T11:40:54;51964.78;;;-140.72;0.00
38197;BME280;26543;51.976;4.616;2023-05-03T11:43:20;51907.97;;;-140.72;0.00
38197;BME280;26543;51.976;4.616;2023-05-03T11:45:45;51901.88;;;-140.72;0.00
38197;BME280;26543;51.976;4.616;2023-05-03T11:48:12;51954.63;;;-140.72;0.00
38197;BME280;26543;51.976;4.616;2023-05-03T11:53:12;51881.59;;;-140.72;0.00
38197;BME280;26543;51.976;4.616;2023-05-03T11:55:39;51914.03;;;-140.72;0.00
38197;BME280;26543;51.976;4.616;2023-05-03T11:58:07;51910.00;;;-140.72;0.00
38197;BME280;26543;51.976;4.616;2023-05-03T12:00:32;51958.69;;;-140.72;0.00
38197;BME280;26543;51.976;4.616;2023-05-03T12:02:57;51914.03;;;-140.72;0.00
38197;BME280;26543;51.976;4.616;2023-05-03T12:05:23;51879.56;;;-140.72;0.00
38197;BME280;26543;51.976;4.616;2023-05-03T12:07:48;51920.13;;;-140.72;0.00
38197;BME280;26543;51.976;4.616;2023-05-03T12:10:17;51901.88;;;-140.72;0.00
38197;BME280;26543;51.976;4.616;2023-05-03T12:12:53;51993.19;;;-140.72;0.00
38197;BME280;26543;51.976;4.616;2023-05-03T12:15:26;51928.25;;;-140.72;0.00
38197;BME280;26543;51.976;4.616;2023-05-03T12:17:54;51948.53;;;-140.72;0.00
38197;BME280;26543;51.976;4.616;2023-05-03T12:20:20;51895.78;;;-140.72;0.00
38197;BME280;26543;51.976;4.616;2023-05-03T12:22:49;51865.34;;;-140.72;0.00
38197;BME280;26543;51.976;4.616;2023-05-03T12:25:15;51899.84;;;-140.72;0.00
38197;BME280;26543;51.976;4.616;2023-05-03T12:27:40;51885.66;;;-140.72;0.00
38197;BME280;26543;51.976;4.616;2023-05-03T12:30:06;51867.38;;;-140.72;0.00
38197;BME280;26543;51.976;4.616;2023-05-03T12:32:34;51877.53;;;-140.72;0.00
38197;BME280;26543;51.976;4.616;2023-05-03T12:34:59;51875.50;;;-140.72;0.00
38197;BME280;26543;51.976;4.616;2023-05-03T12:37:24;51920.13;;;-140.72;0.00
38197;BME280;26543;51.976;4.616;2023-05-03T12:39:50;51863.31;;;-140.72;0.00
38197;BME280;26543;51.976;4.616;2023-05-03T12:42:15;51899.84;;;-140.72;0.00
38197;BME280;26543;51.976;4.616;2023-05-03T12:44:40;51843.03;;;-140.72;0.00
38197;BME280;26543;51.976;4.616;2023-05-03T12:47:06;51942.44;;;-140.72;0.00
38197;BME280;26543;51.976;4.616;2023-05-03T12:49:31;51871.44;;;-140.72;0.00
38197;BME280;26543;51.976;4.616;2023-05-03T12:51:56;51834.91;;;-140.72;0.00
38197;BME280;26543;51.976;4.616;2023-05-03T12:54:24;51879.56;;;-140.72;0.00
38197;BME280;26543;51.976;4.616;2023-05-03T12:56:49;51932.31;;;-140.72;0.00
38197;BME280;26543;51.976;4.616;2023-05-03T12:59:15;51920.13;;;-140.72;0.00
38197;BME280;26543;51.976;4.616;2023-05-03T13:01:40;51924.19;;;-140.72;0.00
38197;BME280;26543;51.976;4.616;2023-05-03T13:04:06;51891.72;;;-140.72;0.00
38197;BME280;26543;51.976;4.616;2023-05-03T13:06:31;51895.78;;;-140.72;0.00
38197;BME280;26543;51.976;4.616;2023-05-03T13:08:56;51879.56;;;-140.72;0.00
38197;BME280;26543;51.976;4.616;2023-05-03T13:11:22;51946.50;;;-140.72;0.00